createdAt,value
2022-12-03T00:02:18.823Z,4.40
2022-12-03T00:04:45.674Z,4.40
2022-12-03T00:07:12.418Z,4.30
2022-12-03T00:09:39.152Z,4.30
2022-12-03T00:12:06.145Z,4.30
2022-12-03T00:14:32.935Z,4.30
2022-12-03T00:16:59.810Z,4.30
2022-12-03T00:19:26.562Z,4.30
2022-12-03T00:21:53.311Z,4.30
2022-12-03T00:24:20.106Z,4.30
2022-12-03T00:26:47.020Z,4.30
2022-12-03T00:29:13.953Z,4.30
2022-12-03T00:31:42.093Z,4.20
2022-12-03T00:34:08.949Z,4.30
2022-12-03T00:36:35.691Z,4.20
2022-12-03T00:39:02.538Z,4.20
2022-12-03T00:41:29.305Z,4.20
2022-12-03T00:43:57.677Z,4.20
2022-12-03T00:46:27.720Z,4.20
2022-12-03T00:48:54.517Z,4.20
2022-12-03T00:51:21.288Z,4.20
2022-12-03T00:53:48.049Z,4.20
2022-12-03T00:56:14.815Z,4.10
2022-12-03T00:58:41.547Z,4.20
2022-12-03T01:01:08.341Z,4.10
2022-12-03T01:03:35.330Z,4.10
2022-12-03T01:06:02.067Z,4.10
2022-12-03T01:08:28.865Z,4.10
2022-12-03T01:10:55.617Z,4.10
2022-12-03T01:13:22.368Z,4.10
2022-12-03T01:15:49.209Z,4.20
2022-12-03T01:18:16.099Z,4.20
2022-12-03T01:20:42.996Z,4.10
2022-12-03T01:23:09.739Z,4.10
2022-12-03T01:25:36.472Z,4.10
2022-12-03T01:28:03.232Z,4.10
2022-12-03T01:30:50.066Z,4.10
2022-12-03T01:33:16.861Z,4.10
2022-12-03T01:35:43.597Z,4.10
2022-12-03T01:38:10.552Z,4.10
2022-12-03T01:40:37.305Z,4.10
2022-12-03T01:43:04.054Z,4.10
2022-12-03T01:45:31.481Z,4.10
2022-12-03T01:47:58.231Z,4.10
2022-12-03T01:50:31.784Z,4.10
2022-12-03T01:53:00.577Z,4.10
2022-12-03T01:55:27.818Z,4.00
2022-12-03T01:57:59.704Z,4.00
2022-12-03T02:00:27.893Z,4.00
2022-12-03T02:03:04.034Z,4.00
2022-12-03T02:05:32.280Z,4.00
2022-12-03T02:07:59.761Z,4.10
2022-12-03T02:10:32.284Z,4.00
2022-12-03T02:13:07.739Z,4.00
2022-12-03T02:15:35.370Z,4.00
2022-12-03T02:18:02.224Z,4.00
2022-12-03T02:20:30.992Z,4.00
2022-12-03T02:23:09.709Z,4.00
2022-12-03T02:25:36.809Z,4.00
2022-12-03T02:28:05.051Z,4.00
2022-12-03T02:30:32.491Z,4.00
2022-12-03T02:32:59.586Z,4.00
2022-12-03T02:35:30.187Z,4.00
2022-12-03T02:38:04.047Z,4.00
2022-12-03T02:40:32.456Z,4.00
2022-12-03T02:43:01.436Z,4.00
2022-12-03T02:45:39.405Z,4.00
2022-12-03T02:48:11.481Z,4.00
2022-12-03T02:50:41.241Z,4.00
2022-12-03T02:53:11.780Z,4.00
2022-12-03T02:55:39.078Z,4.00
2022-12-03T02:58:06.619Z,4.00
2022-12-03T03:00:35.773Z,3.90
2022-12-03T03:03:03.755Z,3.90
2022-12-03T03:05:30.908Z,3.90
2022-12-03T03:07:58.487Z,3.90
2022-12-03T03:10:26.132Z,3.90
2022-12-03T03:12:54.650Z,3.90
2022-12-03T03:15:22.523Z,3.90
2022-12-03T03:17:49.356Z,3.90
2022-12-03T03:20:16.207Z,3.90
2022-12-03T03:22:43.592Z,3.90
2022-12-03T03:25:16.203Z,3.90
2022-12-03T03:27:43.253Z,3.90
2022-12-03T03:30:11.105Z,3.90
2022-12-03T03:32:39.032Z,3.90
2022-12-03T03:35:06.891Z,3.80
2022-12-03T03:37:33.776Z,3.80
2022-12-03T03:40:00.537Z,3.80
2022-12-03T03:42:27.511Z,3.80
2022-12-03T03:44:54.757Z,3.80
2022-12-03T03:47:23.821Z,3.80
2022-12-03T03:49:50.898Z,3.80
2022-12-03T03:52:19.110Z,3.80
2022-12-03T03:54:46.204Z,3.80
2022-12-03T03:57:12.976Z,3.80
2022-12-03T03:59:39.796Z,3.80
2022-12-03T04:02:06.552Z,3.80
2022-12-03T04:04:36.504Z,3.80
2022-12-03T04:07:03.396Z,3.80
2022-12-03T04:09:30.139Z,3.80
2022-12-03T04:12:15.515Z,3.80
2022-12-03T04:14:43.937Z,3.70
2022-12-03T04:17:10.894Z,3.70
2022-12-03T04:19:37.696Z,3.80
2022-12-03T04:22:23.008Z,3.70
2022-12-03T04:24:49.781Z,3.70
2022-12-03T04:27:35.234Z,3.70
2022-12-03T04:30:01.994Z,3.70
2022-12-03T04:32:47.331Z,3.70
2022-12-03T04:35:32.785Z,3.70
2022-12-03T04:38:01.431Z,3.70
2022-12-03T04:40:46.878Z,3.70
2022-12-03T04:43:13.731Z,3.70
2022-12-03T04:45:40.524Z,3.70
2022-12-03T04:48:07.473Z,3.70
2022-12-03T04:50:34.218Z,3.70
2022-12-03T04:53:00.954Z,3.70
2022-12-03T04:55:27.716Z,3.70
2022-12-03T04:57:54.445Z,3.70
2022-12-03T05:00:21.302Z,3.70
2022-12-03T05:02:48.157Z,3.70
2022-12-03T05:05:15.017Z,3.60
2022-12-03T05:07:42.253Z,3.60
2022-12-03T05:10:09.637Z,3.60
2022-12-03T05:12:36.748Z,3.50
2022-12-03T05:15:05.397Z,3.50
2022-12-03T05:17:32.392Z,3.50
2022-12-03T05:20:17.749Z,3.50
2022-12-03T05:22:44.535Z,3.40
2022-12-03T05:25:11.498Z,3.40
2022-12-03T05:27:38.227Z,3.40
2022-12-03T05:30:05.637Z,3.40
2022-12-03T05:32:32.387Z,3.30
2022-12-03T05:34:59.112Z,3.30
2022-12-03T05:37:25.875Z,3.30
2022-12-03T05:39:52.617Z,3.30
2022-12-03T05:42:37.913Z,3.20
2022-12-03T05:45:05.160Z,3.20
2022-12-03T05:47:31.972Z,3.20
2022-12-03T05:49:58.730Z,3.20
2022-12-03T05:52:25.505Z,3.10
2022-12-03T05:54:52.612Z,3.10
2022-12-03T05:57:19.565Z,3.10
2022-12-03T05:59:46.290Z,3.00
2022-12-03T06:02:13.355Z,3.00
2022-12-03T06:04:40.204Z,2.90
2022-12-03T06:07:12.350Z,2.90
2022-12-03T06:09:40.640Z,2.90
2022-12-03T06:12:08.729Z,2.80
2022-12-03T06:14:35.693Z,2.70
2022-12-03T06:17:03.131Z,2.80
2022-12-03T06:19:29.870Z,2.70
2022-12-03T06:21:56.693Z,2.70
2022-12-03T06:24:23.483Z,2.70
2022-12-03T06:26:50.210Z,2.70
2022-12-03T06:29:17.022Z,2.70
2022-12-03T06:31:43.859Z,2.70
2022-12-03T06:34:10.662Z,2.70
2022-12-03T06:36:37.454Z,2.70
2022-12-03T06:39:04.218Z,2.70
2022-12-03T06:41:31.013Z,2.70
2022-12-03T06:43:57.832Z,2.70
2022-12-03T06:46:24.700Z,2.70
2022-12-03T06:48:51.556Z,2.70
2022-12-03T06:51:18.267Z,2.70
2022-12-03T06:53:45.022Z,2.70
2022-12-03T06:56:11.767Z,2.70
2022-12-03T06:58:38.578Z,2.70
2022-12-03T07:01:05.536Z,2.70
2022-12-03T07:03:32.275Z,2.70
2022-12-03T07:05:59.018Z,2.70
2022-12-03T07:08:25.825Z,2.70
2022-12-03T07:10:52.601Z,2.70
2022-12-03T07:13:19.389Z,2.70
2022-12-03T07:15:46.243Z,2.70
2022-12-03T07:18:13.072Z,2.70
2022-12-03T07:20:39.830Z,2.70
2022-12-03T07:23:06.578Z,2.70
2022-12-03T07:25:33.614Z,2.70
2022-12-03T07:28:00.659Z,2.70
2022-12-03T07:30:27.779Z,2.70
2022-12-03T07:32:54.699Z,2.70
2022-12-03T07:35:21.609Z,2.70
2022-12-03T07:37:48.375Z,2.70
2022-12-03T07:40:15.197Z,2.80
2022-12-03T07:42:41.943Z,2.70
2022-12-03T07:45:09.342Z,2.70
2022-12-03T07:47:36.090Z,2.70
2022-12-03T07:50:02.938Z,2.60
2022-12-03T07:52:30.003Z,2.60
2022-12-03T07:54:56.804Z,2.60
2022-12-03T07:57:23.619Z,2.60
2022-12-03T07:59:50.368Z,2.60
2022-12-03T08:02:21.264Z,2.60
2022-12-03T08:04:48.727Z,2.60
2022-12-03T08:07:15.473Z,2.60
2022-12-03T08:09:45.584Z,2.60
2022-12-03T08:12:39.856Z,2.60
2022-12-03T08:15:10.263Z,2.60
2022-12-03T08:17:39.115Z,2.50
2022-12-03T08:20:13.492Z,2.40
2022-12-03T08:22:41.861Z,2.40
2022-12-03T08:25:27.880Z,2.40
2022-12-03T08:28:13.110Z,2.40
2022-12-03T08:30:41.275Z,2.30
2022-12-03T08:33:31.006Z,2.30
2022-12-03T08:35:57.802Z,2.30
2022-12-03T08:38:24.904Z,2.30
2022-12-03T08:40:52.921Z,2.30
2022-12-03T08:43:24.504Z,2.30
2022-12-03T08:45:53.112Z,2.30
2022-12-03T08:48:27.385Z,2.40
2022-12-03T08:51:01.924Z,2.40
2022-12-03T08:53:35.961Z,2.40
2022-12-03T08:56:11.780Z,2.40
2022-12-03T15:46:56.562Z,2.30
2022-12-03T15:49:23.613Z,2.30
2022-12-03T15:51:50.557Z,2.30
2022-12-03T15:54:17.353Z,2.30
2022-12-03T15:56:44.141Z,2.30
2022-12-03T15:59:13.473Z,2.30
2022-12-03T17:13:48.307Z,2.20
2022-12-03T17:16:15.560Z,2.20
2022-12-03T17:18:42.679Z,2.20
2022-12-03T17:21:09.458Z,2.20
2022-12-03T17:23:36.196Z,2.20
2022-12-03T17:26:03.002Z,2.20
2022-12-03T17:28:29.893Z,2.20
2022-12-03T17:30:56.748Z,2.30
2022-12-03T17:33:23.793Z,2.30
2022-12-03T17:35:50.654Z,2.30
2022-12-03T17:38:17.604Z,2.30
2022-12-03T17:40:44.465Z,2.30
2022-12-03T17:43:11.173Z,2.30
2022-12-03T17:45:37.968Z,2.30
2022-12-03T17:48:04.752Z,2.30
2022-12-03T17:50:31.457Z,2.30
2022-12-03T17:52:58.478Z,2.30
2022-12-03T17:55:35.908Z,2.30
2022-12-03T17:58:04.450Z,2.30
2022-12-03T18:00:31.621Z,2.40
2022-12-03T18:02:58.392Z,2.40
2022-12-03T18:05:25.253Z,2.40
2022-12-03T18:07:52.050Z,2.30
2022-12-03T18:10:18.871Z,2.40
2022-12-03T18:12:45.559Z,2.40
2022-12-03T18:15:12.304Z,2.40
2022-12-03T18:17:38.985Z,2.40
2022-12-03T18:20:06.588Z,2.40
2022-12-03T18:22:33.733Z,2.40
2022-12-03T18:25:00.664Z,2.40
2022-12-03T18:27:27.493Z,2.40
2022-12-03T18:29:54.488Z,2.30
2022-12-03T18:32:28.800Z,2.30
2022-12-03T18:34:56.745Z,2.30
2022-12-03T18:37:29.146Z,2.30
2022-12-03T18:39:56.897Z,2.30
2022-12-03T18:42:24.429Z,2.30
2022-12-03T18:44:52.888Z,2.30
2022-12-03T18:47:25.314Z,2.30
2022-12-03T18:49:52.420Z,2.30
2022-12-03T18:52:21.420Z,2.30
2022-12-03T18:54:48.631Z,2.30
2022-12-03T18:57:15.503Z,2.30
2022-12-03T18:59:42.291Z,2.20
2022-12-03T19:02:22.166Z,2.20
2022-12-03T19:05:01.328Z,2.20
2022-12-03T19:07:28.081Z,2.20
2022-12-03T19:09:55.200Z,2.20
2022-12-03T19:12:22.266Z,2.20
2022-12-03T19:14:50.165Z,2.20
2022-12-03T19:17:16.850Z,2.20
2022-12-03T19:19:43.521Z,2.20
2022-12-03T19:22:10.183Z,2.20
2022-12-03T19:24:36.898Z,2.20
2022-12-03T19:27:03.640Z,2.10
2022-12-03T19:29:30.342Z,2.10
2022-12-03T19:31:57.178Z,2.00
2022-12-03T19:34:24.277Z,2.00
2022-12-03T19:36:51.094Z,2.00
2022-12-03T19:39:18.000Z,1.90
2022-12-03T19:41:44.921Z,1.90
2022-12-03T19:44:16.249Z,1.90
2022-12-03T19:46:43.596Z,1.80
2022-12-03T19:49:11.059Z,1.80
2022-12-03T19:51:37.925Z,1.80
2022-12-03T19:54:07.057Z,1.80
2022-12-03T19:56:34.527Z,1.80
2022-12-03T19:59:02.336Z,1.80
2022-12-03T20:01:33.636Z,1.80
2022-12-03T20:04:02.823Z,1.80
2022-12-03T20:06:32.890Z,1.80
2022-12-03T20:09:02.307Z,1.70
2022-12-03T20:11:31.910Z,1.70
2022-12-03T20:14:00.787Z,1.70
2022-12-03T20:16:28.428Z,1.70
2022-12-03T20:19:01.103Z,1.70
2022-12-03T20:21:29.920Z,1.70
2022-12-03T20:23:57.339Z,1.60
2022-12-03T20:26:25.060Z,1.60
2022-12-03T20:28:54.423Z,1.60
2022-12-03T20:31:23.832Z,1.60
2022-12-03T20:33:52.827Z,1.60
2022-12-03T20:36:21.212Z,1.50
2022-12-03T20:38:48.326Z,1.60
2022-12-03T20:41:21.435Z,1.60
2022-12-03T20:43:48.945Z,1.50
2022-12-03T20:46:17.149Z,1.50
2022-12-03T20:48:45.053Z,1.50
2022-12-03T20:51:14.731Z,1.50
2022-12-03T20:53:42.387Z,1.40
2022-12-03T20:56:09.667Z,1.40
2022-12-03T20:58:36.565Z,1.30
2022-12-03T21:01:16.087Z,1.30
2022-12-03T21:03:44.072Z,1.20
2022-12-03T21:06:11.910Z,1.20
2022-12-03T21:08:41.876Z,1.20
2022-12-03T21:11:17.019Z,1.20
2022-12-03T21:13:44.461Z,1.20
2022-12-03T21:16:16.485Z,1.10
2022-12-03T21:18:43.574Z,1.10
2022-12-03T21:21:11.790Z,1.10
2022-12-03T21:23:38.564Z,1.10
2022-12-03T21:26:06.821Z,1.10
2022-12-03T21:28:33.867Z,1.10
2022-12-03T21:31:02.409Z,1.10
2022-12-03T21:33:30.255Z,1.10
2022-12-03T21:35:58.003Z,1.10
2022-12-03T21:38:25.823Z,1.10
2022-12-03T21:40:53.121Z,1.00
2022-12-03T21:43:20.328Z,1.00
2022-12-03T21:45:47.507Z,1.00
2022-12-03T21:48:14.743Z,1.00
2022-12-03T21:50:41.626Z,1.00
2022-12-03T21:53:08.700Z,1.00
2022-12-03T21:55:38.043Z,0.90
2022-12-03T21:58:04.837Z,0.90
2022-12-03T22:00:31.758Z,0.90
2022-12-03T22:02:58.600Z,0.80
2022-12-03T22:05:25.404Z,0.80
2022-12-03T22:07:52.251Z,0.80
2022-12-03T22:10:19.397Z,0.80
2022-12-03T22:12:46.179Z,0.80
2022-12-03T22:15:18.484Z,0.80
2022-12-03T22:17:46.369Z,0.80
2022-12-03T22:20:13.653Z,0.80
2022-12-03T22:22:40.411Z,0.80
2022-12-03T22:25:07.874Z,0.80
2022-12-03T22:27:34.843Z,0.80
2022-12-03T22:30:02.324Z,0.70
2022-12-03T22:32:29.329Z,0.70
2022-12-03T22:34:56.167Z,0.70
2022-12-03T22:37:23.002Z,0.70
2022-12-03T22:39:49.787Z,0.70
2022-12-03T22:42:16.536Z,0.70
2022-12-03T22:44:43.342Z,0.70
2022-12-03T22:47:10.147Z,0.70
2022-12-03T22:49:36.967Z,0.70
2022-12-03T22:52:03.731Z,0.70
2022-12-03T22:54:30.534Z,0.60
2022-12-03T22:56:57.404Z,0.60
2022-12-03T22:59:24.409Z,0.60
2022-12-03T23:01:51.379Z,0.60
2022-12-03T23:04:18.245Z,0.70
2022-12-03T23:06:45.166Z,0.60
2022-12-03T23:09:11.987Z,0.60
2022-12-03T23:11:38.843Z,0.60
2022-12-03T23:14:05.769Z,0.60
2022-12-03T23:16:33.767Z,0.60
2022-12-03T23:19:01.774Z,0.60
2022-12-03T23:21:31.030Z,0.60
2022-12-03T23:24:01.954Z,0.60
2022-12-03T23:26:29.293Z,0.60
2022-12-03T23:28:56.363Z,0.60
2022-12-03T23:31:31.779Z,0.60
2022-12-03T23:33:59.488Z,0.60
2022-12-03T23:36:28.589Z,0.60
2022-12-03T23:38:55.484Z,0.60
2022-12-03T23:41:23.543Z,0.50
2022-12-03T23:43:50.269Z,0.50
2022-12-03T23:46:19.812Z,0.50
2022-12-03T23:48:46.728Z,0.50
2022-12-03T23:51:17.069Z,0.50
2022-12-03T23:53:44.752Z,0.50
2022-12-03T23:56:18.984Z,0.50
2022-12-03T23:58:46.300Z,0.50
